Time;durP1;ratioP1;P1;durP2;ratioP2;P2;SDS_P1;SDS_P2;PMS_P1;PMS_P2;Temp;Humidity;BMP_temperature;BMP_pressure;BME280_temperature;BME280_humidity;BME280_pressure;Samples;Min_cycle;Max_cycle;Signal;HPM_P1;HPM_P2
2022/09/20 00:00:32;;;;;;;2.00;1.20;;;;;;;15.60;68.07;99282.38;5111394;27;20198;-58
2022/09/20 00:02:59;;;;;;;0.90;0.90;;;;;;;15.57;68.19;99272.09;5111623;28;20190;-60
2022/09/20 00:05:26;;;;;;;1.23;1.13;;;;;;;15.64;68.48;99274.38;5111756;28;20191;-59
2022/09/20 00:07:54;;;;;;;1.30;1.20;;;;;;;15.62;67.70;99274.44;5111765;28;20232;-58
2022/09/20 00:10:23;;;;;;;2.50;1.20;;;;;;;15.59;68.32;99275.47;5111534;28;20697;-54
2022/09/20 00:12:50;;;;;;;2.63;1.23;;;;;;;15.57;68.38;99268.63;5111243;28;20258;-54
2022/09/20 00:15:17;;;;;;;1.20;1.10;;;;;;;15.56;67.71;99269.56;5110272;28;20195;-53
2022/09/20 00:17:44;;;;;;;1.10;1.10;;;;;;;15.55;68.41;99270.50;5111545;28;20596;-54
2022/09/20 00:20:11;;;;;;;1.00;0.97;;;;;;;15.56;68.32;99269.56;5111264;28;20198;-55
2022/09/20 00:22:37;;;;;;;3.13;1.03;;;;;;;15.61;67.71;99270.16;5111267;28;20190;-54
2022/09/20 00:25:07;;;;;;;1.13;0.93;;;;;;;15.59;68.15;99254.53;5111195;28;20204;-54
2022/09/20 00:27:34;;;;;;;1.90;0.67;;;;;;;15.57;68.08;99260.78;5110948;28;20201;-55
2022/09/20 00:30:01;;;;;;;2.97;1.20;;;;;;;15.57;67.62;99271.25;5111253;28;20709;-54
2022/09/20 00:32:28;;;;;;;1.13;1.13;;;;;;;15.56;68.33;99262.56;5111082;28;20305;-54
2022/09/20 00:35:06;;;;;;;1.00;1.00;;;;;;;15.54;68.21;99268.75;5110900;28;20230;-62
2022/09/20 00:37:33;;;;;;;0.90;0.90;;;;;;;15.56;67.98;99262.56;5111201;28;20746;-60
2022/09/20 00:40:00;;;;;;;0.70;0.70;;;;;;;15.51;67.72;99258.44;5110981;28;20576;-60
2022/09/20 00:42:30;;;;;;;0.90;0.90;;;;;;;15.49;68.46;99265.53;5110997;27;20187;-59
2022/09/20 00:44:59;;;;;;;1.03;1.03;;;;;;;15.47;68.21;99259.53;5111140;28;20191;-54
2022/09/20 00:47:35;;;;;;;1.73;1.10;;;;;;;15.46;68.64;99265.72;5110941;28;20202;-59
2022/09/20 00:50:14;;;;;;;0.87;0.87;;;;;;;15.47;68.99;99267.38;5110879;28;20198;-59
2022/09/20 00:52:44;;;;;;;2.70;1.20;;;;;;;15.45;69.03;99266.63;5110683;28;20743;-58
2022/09/20 00:55:11;;;;;;;0.87;0.87;;;;;;;15.43;69.13;99268.47;5110674;28;20201;-59
2022/09/20 00:57:40;;;;;;;0.90;0.90;;;;;;;15.44;69.24;99276.25;5111081;28;20202;-59
2022/09/20 01:00:09;;;;;;;1.10;1.10;;;;;;;15.42;68.86;99264.19;5110709;28;20203;-59
2022/09/20 01:02:40;;;;;;;1.20;0.80;;;;;;;15.36;69.56;99267.94;5110519;28;20306;-53
2022/09/20 01:05:08;;;;;;;0.93;0.93;;;;;;;15.37;69.83;99253.94;5110483;27;20666;-53
2022/09/20 01:07:36;;;;;;;0.80;0.80;;;;;;;15.42;70.07;99261.56;5110522;28;20205;-53
2022/09/20 01:10:03;;;;;;;1.00;0.90;;;;;;;15.37;70.20;99258.31;5110714;28;20674;-53
2022/09/20 01:12:34;;;;;;;1.73;1.03;;;;;;;15.32;70.89;99263.81;5110447;28;20223;-54
2022/09/20 01:15:04;;;;;;;1.27;1.03;;;;;;;15.25;71.55;99252.81;5110603;28;20194;-54
2022/09/20 01:17:34;;;;;;;1.17;1.07;;;;;;;15.30;71.70;99251.75;5110283;28;20744;-53
2022/09/20 01:20:18;;;;;;;0.80;0.80;;;;;;;15.26;71.96;99262.34;5110406;28;20285;-53
2022/09/20 01:22:59;;;;;;;0.90;0.90;;;;;;;15.14;73.02;99252.53;5108984;28;20191;-59
2022/09/20 01:25:44;;;;;;;0.77;0.77;;;;;;;15.13;73.21;99256.06;5110335;28;20198;-60
2022/09/20 01:28:13;;;;;;;1.23;1.03;;;;;;;15.07;73.57;99253.78;5110068;28;20198;-59
2022/09/20 01:30:45;;;;;;;2.47;0.83;;;;;;;15.04;74.17;99251.31;5110158;28;20198;-54
2022/09/20 01:33:20;;;;;;;0.93;0.93;;;;;;;14.99;74.35;99253.31;5109921;28;20222;-58
2022/09/20 01:35:50;;;;;;;1.70;1.13;;;;;;;15.02;73.99;99252.31;5110246;28;20216;-58
2022/09/20 01:38:31;;;;;;;3.17;1.20;;;;;;;15.04;74.05;99253.06;5109855;28;20190;-58
2022/09/20 01:41:06;;;;;;;3.00;1.20;;;;;;;15.02;74.42;99252.31;5109712;28;20229;-59
2022/09/20 01:43:42;;;;;;;1.27;1.00;;;;;;;14.90;73.52;99238.09;5110156;28;20200;-53
2022/09/20 01:46:24;;;;;;;1.20;0.90;;;;;;;14.98;73.69;99256.88;5109888;28;20685;-53
2022/09/20 01:48:54;;;;;;;1.17;1.00;;;;;;;14.99;73.75;99255.94;5109880;28;20201;-53
2022/09/20 01:51:41;;;;;;;0.80;0.80;;;;;;;14.99;73.74;99261.16;5109907;28;20186;-53
2022/09/20 01:54:37;;;;;;;0.80;0.80;;;;;;;14.99;74.16;99258.56;5109819;28;20591;-54
2022/09/20 01:57:37;;;;;;;0.97;0.97;;;;;;;15.00;73.69;99262.00;5109690;28;20198;-54
2022/09/20 02:00:13;;;;;;;0.77;0.77;;;;;;;14.99;73.38;99257.72;5109867;28;20204;-54
2022/09/20 02:03:24;;;;;;;0.80;0.80;;;;;;;14.97;73.78;99270.84;5109712;28;20211;-54
2022/09/20 02:06:10;;;;;;;0.93;0.90;;;;;;;14.96;72.83;99263.94;5067441;28;20200;-54
2022/09/20 02:09:03;;;;;;;0.97;0.90;;;;;;;14.88;73.48;99274.78;5105439;28;20259;-54
2022/09/20 02:11:44;;;;;;;2.30;1.10;;;;;;;14.75;73.37;99271.09;5109748;28;20190;-53
2022/09/20 02:14:33;;;;;;;1.17;0.93;;;;;;;14.78;73.41;99280.53;5109495;28;20230;-55
2022/09/20 02:17:12;;;;;;;0.70;0.70;;;;;;;14.78;72.97;99280.53;5110130;28;20619;-54
2022/09/20 02:20:10;;;;;;;1.13;0.80;;;;;;;14.40;73.16;99230.19;5109739;28;20666;-60
2022/09/20 02:22:46;;;;;;;1.70;0.97;;;;;;;14.64;72.86;99273.38;5105408;28;20573;-53
2022/09/20 02:25:23;;;;;;;1.07;1.07;;;;;;;14.58;72.48;99280.66;5109512;28;20197;-53
2022/09/20 02:28:05;;;;;;;1.23;1.17;;;;;;;14.44;72.75;99253.47;5109638;28;20217;-53
2022/09/20 02:30:41;;;;;;;0.90;0.90;;;;;;;14.51;72.03;99269.66;5109445;28;20195;-54
2022/09/20 02:33:30;;;;;;;1.40;1.30;;;;;;;14.50;71.84;99270.59;5109488;28;20240;-54
2022/09/20 02:36:16;;;;;;;1.30;1.30;;;;;;;14.50;71.31;99271.44;5100556;28;20678;-54
2022/09/20 02:38:58;;;;;;;1.67;1.40;;;;;;;14.49;71.68;99272.34;5109444;28;20685;-54
2022/09/20 02:41:47;;;;;;;1.40;1.30;;;;;;;14.50;71.55;99283.63;5109419;28;20945;-54
2022/09/20 02:44:22;;;;;;;1.30;1.20;;;;;;;14.46;71.06;99284.69;5109238;28;20205;-54
2022/09/20 02:46:56;;;;;;;2.50;1.20;;;;;;;14.41;71.01;99282.31;5109413;28;20198;-54
2022/09/20 02:49:33;;;;;;;1.13;1.13;;;;;;;14.21;71.18;99265.91;5109235;28;20204;-54
2022/09/20 02:52:07;;;;;;;2.10;1.40;;;;;;;14.30;71.37;99297.63;5111684;28;20650;-54
2022/09/20 02:54:45;;;;;;;1.20;1.10;;;;;;;14.25;71.83;99291.75;5113069;28;20226;-54
2022/09/20 02:57:21;;;;;;;1.60;1.50;;;;;;;14.17;71.77;99292.13;5113034;28;20239;-54
2022/09/20 02:59:54;;;;;;;1.80;1.70;;;;;;;14.07;72.28;99279.59;5113031;28;20202;-54
2022/09/20 03:02:28;;;;;;;1.50;1.40;;;;;;;14.24;71.45;99302.28;5112852;28;20577;-54
2022/09/20 03:05:13;;;;;;;2.83;1.50;;;;;;;14.25;71.19;99309.19;5112497;28;20210;-53
2022/09/20 03:07:53;;;;;;;2.10;1.90;;;;;;;14.27;71.13;99310.81;5112986;28;20638;-54
2022/09/20 03:10:26;;;;;;;2.23;2.03;;;;;;;14.17;71.36;99306.94;5112501;28;20202;-53
2022/09/20 03:13:07;;;;;;;1.87;1.77;;;;;;;14.14;71.84;99302.72;5112737;28;20586;-54
2022/09/20 03:15:46;;;;;;;1.80;1.70;;;;;;;14.15;72.07;99314.00;5113086;28;20623;-54
2022/09/20 03:18:16;;;;;;;1.90;1.80;;;;;;;14.11;72.30;99315.03;5112679;28;20197;-54
2022/09/20 03:20:58;;;;;;;3.40;1.73;;;;;;;14.12;72.13;99327.19;5112757;28;20201;-54
2022/09/20 03:23:44;;;;;;;2.07;1.47;;;;;;;13.99;73.41;99320.84;5112495;28;20194;-53
2022/09/20 03:26:24;;;;;;;1.90;1.80;;;;;;;13.98;73.48;99308.72;5112581;28;20212;-54
2022/09/20 03:29:01;;;;;;;3.60;1.80;;;;;;;13.94;73.28;99315.00;5112493;28;20199;-53
2022/09/20 03:31:57;;;;;;;1.93;1.83;;;;;;;13.97;73.10;99317.47;5112636;28;20201;-53
2022/09/20 03:34:43;;;;;;;2.13;1.90;;;;;;;13.98;72.54;99325.22;5110656;28;20218;-59
2022/09/20 03:37:27;;;;;;;1.80;1.73;;;;;;;13.97;73.07;99320.94;5112458;28;20737;-59
2022/09/20 03:40:23;;;;;;;1.80;1.70;;;;;;;13.91;73.21;99309.91;5112546;28;20601;-59
2022/09/20 03:42:53;;;;;;;1.63;1.53;;;;;;;13.95;73.24;99314.06;5112325;28;20581;-59
2022/09/20 03:45:49;;;;;;;2.03;1.93;;;;;;;13.94;73.42;99322.81;5111994;28;20206;-58
2022/09/20 03:48:46;;;;;;;1.70;1.60;;;;;;;13.93;73.78;99334.16;5111321;28;20195;-59
2022/09/20 03:51:25;;;;;;;2.43;2.00;;;;;;;14.02;73.18;99312.88;5091643;28;20201;-59
2022/09/20 03:54:30;;;;;;;3.70;1.60;;;;;;;13.97;72.82;99315.72;5109808;28;20218;-58
2022/09/20 03:57:17;;;;;;;3.37;2.27;;;;;;;13.93;72.92;99323.72;5107647;28;20190;-59
2022/09/20 04:00:00;;;;;;;2.00;1.80;;;;;;;13.86;73.13;99317.13;5109329;28;20195;-59
2022/09/20 04:02:44;;;;;;;1.70;1.60;;;;;;;13.86;72.78;99317.13;5106523;28;20201;-60
2022/09/20 04:05:16;;;;;;;1.63;1.53;;;;;;;13.89;73.16;99336.06;5107197;28;20274;-59
2022/09/20 04:07:58;;;;;;;2.23;1.70;;;;;;;13.88;73.28;99320.50;5110408;28;20194;-60
2022/09/20 04:10:37;;;;;;;2.10;2.00;;;;;;;13.91;74.13;99336.84;5090155;28;20310;-60
2022/09/20 04:13:19;;;;;;;2.80;1.90;;;;;;;13.88;73.96;99333.53;5105458;28;20214;-60
2022/09/20 04:15:58;;;;;;;1.83;1.73;;;;;;;13.75;74.82;99328.88;5110864;28;20190;-60
2022/09/20 04:18:36;;;;;;;2.63;1.90;;;;;;;13.88;74.83;99338.75;5110488;28;20194;-60
2022/09/20 04:21:08;;;;;;;1.93;1.83;;;;;;;13.75;74.95;99333.25;5110817;28;20739;-54
2022/09/20 04:23:44;;;;;;;2.10;2.00;;;;;;;13.87;74.88;99350.13;5110112;28;20281;-55
2022/09/20 04:26:15;;;;;;;3.10;2.03;;;;;;;13.90;74.90;99353.41;5108898;28;20587;-54
2022/09/20 04:28:48;;;;;;;4.67;1.90;;;;;;;13.81;74.90;99327.75;5090100;28;20203;-54
2022/09/20 04:31:25;;;;;;;2.13;2.00;;;;;;;13.98;74.47;99350.47;5090405;28;20193;-54
2022/09/20 04:33:57;;;;;;;3.40;2.37;;;;;;;14.04;74.55;99345.81;5089927;28;20235;-53
2022/09/20 04:36:36;;;;;;;2.63;1.97;;;;;;;14.06;74.82;99354.44;5107444;28;20259;-55
2022/09/20 04:39:14;;;;;;;2.00;1.80;;;;;;;14.02;74.71;99357.22;5110191;28;20226;-56
2022/09/20 04:42:29;;;;;;;2.07;1.97;;;;;;;14.05;74.73;99360.56;5110514;28;20584;-56
2022/09/20 04:45:29;;;;;;;5.20;1.90;;;;;;;14.05;74.32;99370.16;5110871;28;20731;-55
2022/09/20 04:48:42;;;;;;;2.20;2.00;;;;;;;14.15;73.83;99366.19;5110866;28;20228;-59
2022/09/20 04:51:45;;;;;;;4.50;2.27;;;;;;;14.30;72.56;99365.50;5047497;28;20201;-62
2022/09/20 04:54:46;;;;;;;2.60;2.50;;;;;;;14.26;72.38;99366.56;5047790;28;20310;-61
2022/09/20 04:57:46;;;;;;;4.07;2.37;;;;;;;14.28;71.39;99380.38;5078823;28;20207;-54
2022/09/20 05:00:18;;;;;;;2.10;2.00;;;;;;;14.46;70.21;99381.31;5089679;28;20706;-54
2022/09/20 05:03:28;;;;;;;2.30;2.10;;;;;;;14.61;69.09;99387.59;5089449;28;20209;-54
2022/09/20 05:06:23;;;;;;;2.47;2.27;;;;;;;14.76;68.57;99390.34;5089363;28;20671;-54
2022/09/20 05:09:12;;;;;;;2.30;2.20;;;;;;;14.84;67.78;99396.03;5090094;28;20210;-55
2022/09/20 05:11:57;;;;;;;2.20;2.00;;;;;;;15.28;66.82;99387.78;5090042;28;20203;-55
2022/09/20 05:14:46;;;;;;;6.20;2.00;;;;;;;16.30;62.70;99392.94;5090764;28;20222;-58
2022/09/20 05:17:24;;;;;;;3.23;2.30;;;;;;;18.08;55.92;99386.09;5109519;28;20195;-54
2022/09/20 05:20:11;;;;;;;2.60;2.17;;;;;;;20.01;49.67;99387.53;5109099;27;20230;-56
2022/09/20 05:23:02;;;;;;;1.95;1.85;;;;;;;21.57;44.86;99389.28;5106896;28;20199;-55
2022/09/20 05:25:56;;;;;;;5.10;2.33;;;;;;;23.01;41.74;99400.84;5108138;28;20198;-56
2022/09/20 05:28:30;;;;;;;2.92;2.38;;;;;;;24.22;39.01;99395.00;5110013;28;20673;-61
2022/09/20 05:31:06;;;;;;;4.57;2.00;;;;;;;24.09;38.33;99391.69;5110345;28;20194;-61
2022/09/20 05:33:39;;;;;;;2.20;2.10;;;;;;;22.70;40.89;99397.13;5110180;28;20236;-61
2022/09/20 05:36:13;;;;;;;2.00;1.90;;;;;;;21.04;43.71;99401.19;5109197;28;20680;-61
2022/09/20 05:38:48;;;;;;;2.28;2.17;;;;;;;19.99;46.33;99392.03;5109836;28;20597;-62
2022/09/20 05:41:30;;;;;;;2.42;2.08;;;;;;;19.05;48.61;99372.97;5107645;28;20576;-62
2022/09/20 05:44:08;;;;;;;2.38;2.17;;;;;;;18.52;50.76;99387.75;5110061;28;20595;-61
2022/09/20 05:46:50;;;;;;;5.50;2.50;;;;;;;18.01;52.63;99392.69;5109730;28;20205;-61
2022/09/20 05:49:26;;;;;;;2.53;2.33;;;;;;;18.03;53.10;99397.84;5106914;28;20317;-61
2022/09/20 05:52:18;;;;;;;3.10;2.30;;;;;;;18.38;52.21;99406.19;5106467;28;20309;-61
2022/09/20 05:55:01;;;;;;;2.70;2.60;;;;;;;18.95;50.93;99422.72;5108033;28;20230;-61
2022/09/20 05:57:50;;;;;;;2.83;2.42;;;;;;;19.06;50.40;99422.00;5108736;28;20670;-61
2022/09/20 06:00:23;;;;;;;4.85;2.70;;;;;;;19.87;48.47;99425.34;5108685;28;20190;-61
2022/09/20 06:02:58;;;;;;;4.93;2.83;;;;;;;20.36;46.42;99421.97;5109916;28;20577;-61
2022/09/20 06:05:33;;;;;;;2.88;2.45;;;;;;;20.59;46.11;99427.31;5108631;28;20430;-60
2022/09/20 06:08:29;;;;;;;2.83;2.55;;;;;;;20.45;46.34;99430.09;5109829;28;20637;-60
2022/09/20 06:11:08;;;;;;;4.05;3.15;;;;;;;20.08;46.92;99426.53;5074116;28;20207;-60
2022/09/20 06:13:47;;;;;;;3.38;3.00;;;;;;;19.37;48.69;99424.31;5103107;28;20229;-61
2022/09/20 06:16:24;;;;;;;3.20;2.78;;;;;;;18.67;49.96;99420.13;5109272;28;20245;-60
2022/09/20 06:19:04;;;;;;;4.25;3.10;;;;;;;18.29;51.26;99415.47;5107985;28;20216;-60
2022/09/20 06:21:42;;;;;;;3.83;2.80;;;;;;;18.16;51.26;99414.56;5107649;28;20578;-61
2022/09/20 06:24:22;;;;;;;3.65;2.90;;;;;;;18.19;51.42;99424.00;5107025;28;20198;-60
2022/09/20 06:26:54;;;;;;;5.60;3.20;;;;;;;17.87;51.83;99399.69;5106682;28;20205;-60
2022/09/20 06:29:29;;;;;;;2.70;2.50;;;;;;;17.59;52.61;99418.88;5110341;28;20206;-61
2022/09/20 06:31:56;;;;;;;3.40;2.90;;;;;;;17.37;53.49;99425.38;5113478;28;20601;-61
2022/09/20 06:34:25;;;;;;;6.00;3.13;;;;;;;17.39;53.76;99428.72;5113237;28;20230;-60
2022/09/20 06:42:43;;;;;;;2.93;2.73;;;;;;;17.20;53.85;99440.38;5113220;28;20221;-61
2022/09/20 06:45:10;;;;;;;2.93;2.50;;;;;;;17.24;53.32;99440.13;5112847;28;20228;-59
2022/09/20 06:47:37;;;;;;;2.90;2.70;;;;;;;17.04;53.17;99440.41;5111166;28;20222;-60
2022/09/20 06:50:06;;;;;;;3.23;3.03;;;;;;;17.10;52.91;99452.31;5111901;28;20232;-60
2022/09/20 06:52:34;;;;;;;2.87;2.67;;;;;;;17.20;52.22;99446.47;5105093;28;20195;-59
2022/09/20 06:55:06;;;;;;;2.60;2.40;;;;;;;17.50;51.95;99422.84;5111363;28;20728;-60
2022/09/20 06:57:36;;;;;;;3.00;2.80;;;;;;;17.82;50.78;99441.16;5111773;28;20587;-60
2022/09/20 07:00:05;;;;;;;3.00;2.60;;;;;;;19.36;47.43;99462.09;5108787;28;20198;-61
2022/09/20 07:02:32;;;;;;;2.13;2.03;;;;;;;21.73;42.45;99465.59;5111433;28;20252;-61
2022/09/20 07:04:59;;;;;;;2.55;2.40;;;;;;;23.27;38.68;99467.53;5111450;28;20194;-61
2022/09/20 07:07:27;;;;;;;2.92;2.67;;;;;;;23.55;37.14;99460.84;5111353;28;20218;-60
2022/09/20 07:09:54;;;;;;;3.00;2.80;;;;;;;23.51;37.01;99470.00;5111569;28;20317;-54
2022/09/20 07:12:21;;;;;;;4.75;1.77;;;;;;;24.42;35.07;99464.03;5111942;28;20199;-54
2022/09/20 07:14:49;;;;;;;2.53;2.03;;;;;;;25.43;33.43;99458.56;5111764;28;20689;-55
2022/09/20 07:17:16;;;;;;;4.57;2.35;;;;;;;26.81;31.09;99463.31;5110935;28;20195;-55
2022/09/20 07:19:43;;;;;;;8.20;2.95;;;;;;;27.55;29.81;99468.41;5111265;28;20190;-55
2022/09/20 07:22:10;;;;;;;4.28;3.15;;;;;;;27.86;29.71;99472.38;5112377;28;20191;-55
2022/09/20 07:24:39;;;;;;;2.10;2.00;;;;;;;27.80;29.73;99473.84;5112736;28;20204;-54
2022/09/20 07:27:07;;;;;;;2.60;2.40;;;;;;;26.48;31.00;99462.91;5112612;28;20709;-53
2022/09/20 07:29:35;;;;;;;5.15;3.05;;;;;;;24.75;33.07;99465.56;5112279;28;20220;-55
2022/09/20 07:32:02;;;;;;;3.92;3.63;;;;;;;23.66;34.79;99463.44;5112417;28;20205;-54
2022/09/20 07:34:29;;;;;;;7.30;3.30;;;;;;;22.70;36.06;99457.16;5111233;28;20248;-55
2022/09/20 07:36:58;;;;;;;7.15;4.43;;;;;;;23.52;35.21;99466.38;5111222;28;20256;-56
2022/09/20 07:39:25;;;;;;;3.67;2.30;;;;;;;25.12;32.66;99440.09;5109700;28;20195;-55
2022/09/20 07:41:54;;;;;;;3.58;3.22;;;;;;;26.41;30.88;99469.81;5111703;28;20191;-55
2022/09/20 07:44:23;;;;;;;4.00;3.70;;;;;;;27.86;29.19;99472.38;5111060;28;20202;-56
2022/09/20 07:46:51;;;;;;;4.07;2.97;;;;;;;29.79;27.17;99467.16;5112291;28;20194;-56
2022/09/20 07:49:19;;;;;;;6.20;3.42;;;;;;;30.87;25.54;99466.56;5111861;28;20636;-56
2022/09/20 07:51:46;;;;;;;2.45;2.25;;;;;;;30.36;25.80;99475.97;5111720;28;20202;-55
2022/09/20 07:54:13;;;;;;;5.38;3.55;;;;;;;28.43;27.59;99476.28;5110463;28;20214;-55
2022/09/20 07:56:40;;;;;;;3.72;3.42;;;;;;;27.09;29.65;99472.97;5110594;28;20203;-55
2022/09/20 07:59:09;;;;;;;4.75;3.58;;;;;;;25.36;31.46;99462.78;5111532;28;20635;-55
2022/09/20 08:01:36;;;;;;;3.47;3.08;;;;;;;23.84;33.69;99464.53;5110685;28;20195;-55
2022/09/20 08:04:04;;;;;;;3.58;2.10;;;;;;;22.78;35.34;99455.63;5110494;28;20195;-56
2022/09/20 08:06:32;;;;;;;2.53;2.20;;;;;;;22.16;36.77;99441.19;5110281;28;20197;-54
2022/09/20 08:08:59;;;;;;;3.85;2.65;;;;;;;21.68;37.76;99447.44;5101744;28;20207;-60
2022/09/20 08:11:28;;;;;;;7.03;1.98;;;;;;;21.47;38.18;99433.19;5109218;28;20230;-60
2022/09/20 08:13:56;;;;;;;1.90;1.80;;;;;;;21.56;38.53;99443.06;5109707;27;20225;-61
2022/09/20 08:16:24;;;;;;;1.90;1.80;;;;;;;21.56;38.71;99444.84;5107871;28;20233;-60
2022/09/20 08:18:54;;;;;;;1.98;1.60;;;;;;;20.95;39.49;99444.09;5111221;27;20582;-61
2022/09/20 08:21:21;;;;;;;2.05;1.40;;;;;;;20.70;39.79;99433.63;5111054;28;20214;-55
2022/09/20 08:23:48;;;;;;;1.85;1.75;;;;;;;20.70;40.26;99431.81;5110277;27;20601;-60
2022/09/20 08:26:17;;;;;;;5.30;2.30;;;;;;;20.52;40.98;99433.16;5108759;28;20219;-60
2022/09/20 08:28:46;;;;;;;3.05;2.15;;;;;;;20.25;41.29;99409.53;5109288;28;20229;-60
2022/09/20 08:31:15;;;;;;;4.95;2.40;;;;;;;20.29;41.61;99418.91;5109889;28;20353;-60
2022/09/20 08:33:43;;;;;;;1.77;1.67;;;;;;;20.22;40.88;99417.63;5109924;28;20234;-61
2022/09/20 08:36:13;;;;;;;3.75;1.70;;;;;;;19.99;41.28;99413.13;5110573;28;20228;-61
2022/09/20 08:38:40;;;;;;;2.00;1.90;;;;;;;20.20;41.35;99422.19;5111105;28;20214;-61
2022/09/20 08:41:12;;;;;;;1.80;1.70;;;;;;;20.25;41.34;99407.72;5110926;28;20227;-61
2022/09/20 08:43:43;;;;;;;1.65;1.55;;;;;;;20.44;41.15;99407.31;5111010;28;20581;-60
2022/09/20 08:46:15;;;;;;;3.72;1.65;;;;;;;20.89;40.55;99405.78;5110851;28;20191;-62
2022/09/20 08:48:45;;;;;;;3.08;1.45;;;;;;;21.04;39.81;99414.38;5110727;28;20205;-61
2022/09/20 08:51:14;;;;;;;2.40;1.80;;;;;;;21.26;39.51;99392.56;5110505;28;20202;-61
2022/09/20 08:53:45;;;;;;;1.73;1.30;;;;;;;21.13;39.13;99389.94;5110699;28;20210;-61
2022/09/20 08:56:12;;;;;;;1.88;1.30;;;;;;;21.24;39.21;99395.31;5110418;28;20226;-55
2022/09/20 08:58:39;;;;;;;4.38;2.30;;;;;;;21.13;39.27;99391.75;5110946;28;20607;-54
2022/09/20 09:01:06;;;;;;;1.00;1.00;;;;;;;21.21;38.84;99394.72;5110777;28;20190;-54
2022/09/20 09:03:34;;;;;;;1.33;1.23;;;;;;;21.30;38.06;99388.75;5110199;28;20281;-55
2022/09/20 09:06:02;;;;;;;2.50;0.70;;;;;;;21.28;38.43;99385.38;5110689;28;20201;-57
2022/09/20 09:08:34;;;;;;;3.97;3.13;;;;;;;21.46;37.72;99388.41;5110325;28;20204;-55
2022/09/20 09:11:07;;;;;;;3.30;1.45;;;;;;;21.30;37.06;99388.75;5110157;28;20201;-55
2022/09/20 09:13:42;;;;;;;1.88;1.73;;;;;;;21.30;37.37;99383.47;5110557;28;20194;-55
2022/09/20 09:16:13;;;;;;;1.27;1.17;;;;;;;21.32;37.63;99376.28;5110455;28;20222;-54
2022/09/20 09:18:42;;;;;;;3.83;1.00;;;;;;;21.36;46.04;99369.78;5110254;28;20190;-56
2022/09/20 09:21:19;;;;;;;2.28;1.75;;;;;;;21.42;38.12;99373.78;5110135;28;20682;-61
2022/09/20 09:23:51;;;;;;;4.05;2.03;;;;;;;21.51;37.66;99367.78;5110265;28;20201;-62
2022/09/20 09:26:21;;;;;;;2.03;1.10;;;;;;;21.55;37.39;99364.81;5110121;28;20206;-61
2022/09/20 09:29:02;;;;;;;1.42;1.02;;;;;;;21.62;37.59;99371.31;5110218;28;20759;-62
2022/09/20 09:31:29;;;;;;;6.10;1.30;;;;;;;21.56;37.89;99366.47;5109842;28;20195;-62
2022/09/20 09:33:56;;;;;;;3.60;1.40;;;;;;;21.63;37.55;99361.56;5108864;28;20225;-62
2022/09/20 09:36:26;;;;;;;3.75;1.50;;;;;;;21.59;38.01;99363.59;5107451;28;20301;-61
2022/09/20 09:39:16;;;;;;;2.60;2.40;;;;;;;21.64;37.49;99360.63;5108109;28;20206;-62
2022/09/20 09:41:45;;;;;;;1.35;1.25;;;;;;;21.60;36.57;99354.72;5107753;28;20693;-62
2022/09/20 09:44:21;;;;;;;1.77;1.30;;;;;;;21.77;37.09;99360.53;5107518;28;20230;-61
2022/09/20 09:46:49;;;;;;;0.90;0.90;;;;;;;21.76;36.67;99358.84;5108639;28;20200;-63
2022/09/20 09:49:18;;;;;;;1.75;1.00;;;;;;;21.72;36.69;99353.78;5109713;28;20198;-61
2022/09/20 09:52:02;;;;;;;4.43;1.55;;;;;;;21.66;36.46;99364.00;5109812;28;20194;-61
2022/09/20 09:54:32;;;;;;;1.23;1.00;;;;;;;21.66;36.66;99353.44;5109735;28;20198;-62
2022/09/20 09:57:11;;;;;;;2.33;1.30;;;;;;;21.65;36.81;99352.59;5109960;28;20195;-61
2022/09/20 09:59:56;;;;;;;3.92;3.45;;;;;;;21.63;37.10;99357.13;5109800;28;20205;-62
2022/09/20 10:02:46;;;;;;;0.93;0.93;;;;;;;21.69;36.73;99354.00;5109032;28;20693;-61
2022/09/20 10:05:20;;;;;;;2.08;0.90;;;;;;;21.56;36.45;99307.53;5109871;28;20244;-61
2022/09/20 10:07:54;;;;;;;2.88;2.67;;;;;;;21.92;36.43;99341.66;5109728;28;20191;-62
2022/09/20 10:10:31;;;;;;;1.05;1.05;;;;;;;21.81;35.80;99340.81;5109587;28;20233;-61
2022/09/20 10:13:14;;;;;;;1.20;1.10;;;;;;;21.93;35.25;99348.63;5109913;28;20727;-61
2022/09/20 10:15:50;;;;;;;1.95;1.00;;;;;;;21.93;36.12;99345.16;5109892;28;20225;-63
2022/09/20 10:18:31;;;;;;;1.00;1.00;;;;;;;22.11;35.79;99338.47;5109690;28;20594;-62
2022/09/20 10:21:08;;;;;;;1.95;0.90;;;;;;;22.15;35.06;99345.16;5109737;28;20630;-61
2022/09/20 10:23:58;;;;;;;1.40;1.30;;;;;;;22.26;35.52;99334.59;5109414;28;20294;-62
2022/09/20 10:26:50;;;;;;;8.15;2.25;;;;;;;22.21;35.35;99339.41;5109632;28;20194;-62
2022/09/20 10:29:30;;;;;;;2.38;1.88;;;;;;;22.10;35.71;99331.50;5109449;28;20190;-61
2022/09/20 10:32:09;;;;;;;1.60;1.50;;;;;;;22.11;35.85;99321.75;5109750;28;20289;-61
2022/09/20 10:35:04;;;;;;;2.53;1.27;;;;;;;22.14;35.71;99337.34;5109154;28;20674;-60
2022/09/20 10:37:45;;;;;;;0.95;0.95;;;;;;;22.06;35.47;99319.47;5108793;28;20205;-61
2022/09/20 10:40:25;;;;;;;2.97;0.93;;;;;;;22.03;35.13;99320.53;5108692;28;20209;-61
2022/09/20 10:43:22;;;;;;;1.25;1.02;;;;;;;21.99;35.07;99320.94;5109316;28;20198;-61
2022/09/20 10:45:59;;;;;;;0.77;0.77;;;;;;;22.04;35.72;99327.50;5109661;28;20275;-61
2022/09/20 10:48:32;;;;;;;2.20;1.33;;;;;;;22.00;35.95;99304.09;5109756;28;20281;-61
2022/09/20 10:51:04;;;;;;;4.28;1.13;;;;;;;22.26;35.59;99321.34;5109686;28;20207;-60
2022/09/20 10:53:42;;;;;;;3.53;1.02;;;;;;;22.23;34.88;99310.22;5109317;28;20205;-61
2022/09/20 10:56:22;;;;;;;1.15;0.70;;;;;;;22.09;35.39;99320.06;5109248;28;20678;-60
2022/09/20 10:59:29;;;;;;;0.90;0.90;;;;;;;22.04;35.91;99311.66;5109252;28;20205;-61
2022/09/20 11:02:14;;;;;;;4.10;0.82;;;;;;;21.98;35.38;99303.34;5084205;28;20524;-61
2022/09/20 11:05:20;;;;;;;1.13;1.13;;;;;;;21.81;35.24;99287.97;5109273;28;20191;-61
2022/09/20 11:07:59;;;;;;;7.63;3.13;;;;;;;21.91;36.04;99281.84;5091570;28;20201;-61
2022/09/20 11:10:32;;;;;;;1.60;1.33;;;;;;;21.94;35.49;99299.25;5109044;28;20194;-55
2022/09/20 11:13:02;;;;;;;2.25;1.10;;;;;;;21.82;35.74;99297.56;5109659;28;20234;-54
2022/09/20 11:15:34;;;;;;;1.67;1.10;;;;;;;21.77;36.55;99281.25;5112579;28;20250;-55
2022/09/20 11:18:08;;;;;;;2.55;1.25;;;;;;;21.73;37.20;99286.78;5112765;28;20205;-56
2022/09/20 11:20:43;;;;;;;1.58;1.33;;;;;;;21.67;36.96;99286.44;5112930;28;20193;-54
2022/09/20 11:23:15;;;;;;;1.05;1.05;;;;;;;21.58;36.47;99279.19;5112755;28;20202;-57
2022/09/20 11:25:50;;;;;;;1.38;1.00;;;;;;;21.57;36.10;99286.28;5113151;28;20568;-55
2022/09/20 11:28:21;;;;;;;1.20;1.00;;;;;;;21.51;36.11;99280.66;5112243;28;20194;-55
2022/09/20 11:30:56;;;;;;;2.85;1.38;;;;;;;21.56;35.90;99281.94;5112569;28;20232;-55
2022/09/20 11:33:29;;;;;;;2.10;1.00;;;;;;;21.57;35.25;99274.88;5112383;28;20313;-55
2022/09/20 11:36:00;;;;;;;2.15;1.23;;;;;;;21.50;35.64;99274.53;5112373;28;20218;-54
2022/09/20 11:38:35;;;;;;;1.80;1.70;;;;;;;21.52;35.36;99272.59;5112183;28;20195;-54
2022/09/20 11:41:08;;;;;;;2.38;1.45;;;;;;;21.48;35.57;99273.78;5110011;28;20366;-56
2022/09/20 11:43:37;;;;;;;12.88;1.10;;;;;;;21.50;35.91;99258.69;5111026;28;20205;-60
2022/09/20 11:46:09;;;;;;;1.20;0.80;;;;;;;21.46;35.58;99269.59;5112296;28;20291;-60
2022/09/20 11:48:44;;;;;;;1.33;0.98;;;;;;;21.49;34.53;99267.56;5112292;28;20201;-60
2022/09/20 11:51:44;;;;;;;1.65;1.00;;;;;;;21.33;34.88;99259.16;5112051;28;20277;-61
2022/09/20 11:54:43;;;;;;;0.80;0.80;;;;;;;21.34;35.29;99250.25;5111885;28;20201;-60
2022/09/20 11:57:14;;;;;;;1.70;1.60;;;;;;;21.41;36.09;99243.56;5108436;28;20225;-60
2022/09/20 11:59:43;;;;;;;0.65;0.65;;;;;;;21.42;35.29;99239.97;5111827;28;20238;-60
2022/09/20 12:02:18;;;;;;;3.28;1.90;;;;;;;21.42;34.63;99250.53;5111857;28;20190;-60
2022/09/20 12:04:52;;;;;;;1.83;1.50;;;;;;;21.41;35.29;99248.84;5111709;28;20259;-61
2022/09/20 12:07:22;;;;;;;0.80;0.80;;;;;;;21.42;35.03;99242.59;5111605;28;20251;-61
2022/09/20 12:09:55;;;;;;;1.45;0.90;;;;;;;21.46;35.17;99254.59;5110414;28;20191;-61
2022/09/20 12:12:36;;;;;;;0.60;0.60;;;;;;;21.46;34.74;99249.31;5110430;28;20201;-61
2022/09/20 12:15:06;;;;;;;0.80;0.80;;;;;;;21.45;35.49;99244.13;5109427;28;20202;-60
2022/09/20 12:18:04;;;;;;;0.90;0.90;;;;;;;21.42;35.40;99247.88;5111327;28;20198;-60
2022/09/20 12:21:01;;;;;;;0.70;0.70;;;;;;;21.40;34.20;99252.44;5111164;28;20194;-61
2022/09/20 12:24:02;;;;;;;2.30;0.70;;;;;;;21.35;34.13;99246.66;5111129;28;20751;-60